sensor_id;sensor_type;location;lat;lon;timestamp;temperature;humidity
6363;DHT22;3214;49.932;8.494;2024-03-23T00:55:22;10.00;99.90
6363;DHT22;3214;49.932;8.494;2024-03-23T00:57:49;10.10;99.90
6363;DHT22;3214;49.932;8.494;2024-03-23T01:00:15;10.20;99.90
6363;DHT22;3214;49.932;8.494;2024-03-23T01:02:42;10.40;99.90
6363;DHT22;3214;49.932;8.494;2024-03-23T01:05:08;10.30;99.90
6363;DHT22;3214;49.932;8.494;2024-03-23T01:07:35;10.40;99.90
6363;DHT22;3214;49.932;8.494;2024-03-23T01:10:02;10.50;99.90
6363;DHT22;3214;49.932;8.494;2024-03-23T01:12:29;10.60;99.90
6363;DHT22;3214;49.932;8.494;2024-03-23T01:14:55;10.80;99.90
6363;DHT22;3214;49.932;8.494;2024-03-23T01:17:21;10.80;99.90
6363;DHT22;3214;49.932;8.494;2024-03-23T01:19:47;10.80;99.90
6363;DHT22;3214;49.932;8.494;2024-03-23T01:22:14;10.80;99.90
6363;DHT22;3214;49.932;8.494;2024-03-23T01:24:40;10.80;99.90
6363;DHT22;3214;49.932;8.494;2024-03-23T01:27:08;10.80;99.90
6363;DHT22;3214;49.932;8.494;2024-03-23T01:29:34;10.80;99.90
6363;DHT22;3214;49.932;8.494;2024-03-23T01:32:01;10.80;99.90
6363;DHT22;3214;49.932;8.494;2024-03-23T01:34:26;10.80;99.90
6363;DHT22;3214;49.932;8.494;2024-03-23T01:36:53;10.90;99.90
6363;DHT22;3214;49.932;8.494;2024-03-23T01:39:19;10.80;99.90
6363;DHT22;3214;49.932;8.494;2024-03-23T01:41:46;10.80;99.90
6363;DHT22;3214;49.932;8.494;2024-03-23T01:44:13;10.90;99.90
6363;DHT22;3214;49.932;8.494;2024-03-23T01:46:41;10.90;99.90
6363;DHT22;3214;49.932;8.494;2024-03-23T01:49:07;11.00;99.90
6363;DHT22;3214;49.932;8.494;2024-03-23T01:51:35;10.90;99.90
6363;DHT22;3214;49.932;8.494;2024-03-23T01:54:02;10.90;99.90
6363;DHT22;3214;49.932;8.494;2024-03-23T01:56:29;10.90;99.90
6363;DHT22;3214;49.932;8.494;2024-03-23T01:58:55;11.00;99.90
6363;DHT22;3214;49.932;8.494;2024-03-23T02:01:23;11.10;99.90
6363;DHT22;3214;49.932;8.494;2024-03-23T02:03:49;11.10;99.90
6363;DHT22;3214;49.932;8.494;2024-03-23T02:06:16;11.10;99.90
6363;DHT22;3214;49.932;8.494;2024-03-23T02:08:42;11.10;99.90
6363;DHT22;3214;49.932;8.494;2024-03-23T02:11:09;11.10;99.90
6363;DHT22;3214;49.932;8.494;2024-03-23T02:13:35;11.10;99.90
6363;DHT22;3214;49.932;8.494;2024-03-23T02:16:02;11.20;99.90
6363;DHT22;3214;49.932;8.494;2024-03-23T02:18:29;11.30;99.90
6363;DHT22;3214;49.932;8.494;2024-03-23T02:20:55;11.30;99.90
6363;DHT22;3214;49.932;8.494;2024-03-23T02:23:22;11.30;99.90
6363;DHT22;3214;49.932;8.494;2024-03-23T02:25:49;11.20;99.90
6363;DHT22;3214;49.932;8.494;2024-03-23T02:28:15;11.10;99.90
6363;DHT22;3214;49.932;8.494;2024-03-23T02:30:42;11.10;99.90
6363;DHT22;3214;49.932;8.494;2024-03-23T02:33:08;10.90;99.90
6363;DHT22;3214;49.932;8.494;2024-03-23T02:35:34;10.90;99.90
6363;DHT22;3214;49.932;8.494;2024-03-23T02:38:00;10.90;99.90
6363;DHT22;3214;49.932;8.494;2024-03-23T02:40:28;10.90;99.90
6363;DHT22;3214;49.932;8.494;2024-03-23T02:42:54;11.00;99.90
6363;DHT22;3214;49.932;8.494;2024-03-23T02:45:21;11.00;99.90
6363;DHT22;3214;49.932;8.494;2024-03-23T02:47:47;11.00;99.90
6363;DHT22;3214;49.932;8.494;2024-03-23T02:50:17;11.10;99.90
6363;DHT22;3214;49.932;8.494;2024-03-23T02:52:43;11.10;99.90
6363;DHT22;3214;49.932;8.494;2024-03-23T02:55:10;11.30;99.90
6363;DHT22;3214;49.932;8.494;2024-03-23T02:57:37;11.30;99.90
6363;DHT22;3214;49.932;8.494;2024-03-23T03:00:04;11.30;99.90
6363;DHT22;3214;49.932;8.494;2024-03-23T03:02:32;11.40;99.90
6363;DHT22;3214;49.932;8.494;2024-03-23T03:04:58;11.40;99.90
6363;DHT22;3214;49.932;8.494;2024-03-23T03:07:24;11.30;99.90
6363;DHT22;3214;49.932;8.494;2024-03-23T03:09:51;11.30;99.90
6363;DHT22;3214;49.932;8.494;2024-03-23T03:12:17;11.40;99.90
6363;DHT22;3214;49.932;8.494;2024-03-23T03:14:45;11.40;99.90
6363;DHT22;3214;49.932;8.494;2024-03-23T03:17:10;11.40;99.90
6363;DHT22;3214;49.932;8.494;2024-03-23T03:19:37;11.30;99.90
6363;DHT22;3214;49.932;8.494;2024-03-23T03:22:40;11.30;99.90
6363;DHT22;3214;49.932;8.494;2024-03-23T03:25:07;11.30;99.90
6363;DHT22;3214;49.932;8.494;2024-03-23T03:27:33;11.30;99.90
6363;DHT22;3214;49.932;8.494;2024-03-23T03:30:02;11.30;99.90
6363;DHT22;3214;49.932;8.494;2024-03-23T03:32:28;11.30;99.90
6363;DHT22;3214;49.932;8.494;2024-03-23T03:34:55;11.40;99.90
6363;DHT22;3214;49.932;8.494;2024-03-23T03:37:21;11.40;99.90
6363;DHT22;3214;49.932;8.494;2024-03-23T03:39:48;11.40;99.90
6363;DHT22;3214;49.932;8.494;2024-03-23T03:42:13;11.40;99.90
6363;DHT22;3214;49.932;8.494;2024-03-23T03:44:40;11.50;99.90
6363;DHT22;3214;49.932;8.494;2024-03-23T03:47:07;11.60;99.90
6363;DHT22;3214;49.932;8.494;2024-03-23T03:49:34;11.60;99.90
6363;DHT22;3214;49.932;8.494;2024-03-23T03:52:00;11.60;99.90
6363;DHT22;3214;49.932;8.494;2024-03-23T03:54:27;11.60;99.90
6363;DHT22;3214;49.932;8.494;2024-03-23T03:57:01;11.60;99.90
6363;DHT22;3214;49.932;8.494;2024-03-23T03:59:28;11.50;99.90
6363;DHT22;3214;49.932;8.494;2024-03-23T04:01:54;11.40;99.90
6363;DHT22;3214;49.932;8.494;2024-03-23T04:04:21;11.50;99.90
6363;DHT22;3214;49.932;8.494;2024-03-23T04:06:48;11.50;99.90
6363;DHT22;3214;49.932;8.494;2024-03-23T04:09:14;11.40;99.90
6363;DHT22;3214;49.932;8.494;2024-03-23T04:11:40;11.50;99.90
6363;DHT22;3214;49.932;8.494;2024-03-23T04:14:08;11.60;99.90
6363;DHT22;3214;49.932;8.494;2024-03-23T04:16:35;11.80;99.90
6363;DHT22;3214;49.932;8.494;2024-03-23T04:19:02;11.80;99.90
6363;DHT22;3214;49.932;8.494;2024-03-23T04:21:27;11.80;99.90
6363;DHT22;3214;49.932;8.494;2024-03-23T04:23:54;11.70;99.90
6363;DHT22;3214;49.932;8.494;2024-03-23T04:26:20;11.60;99.90
6363;DHT22;3214;49.932;8.494;2024-03-23T04:28:47;11.60;99.90
6363;DHT22;3214;49.932;8.494;2024-03-23T04:31:14;11.40;99.90
6363;DHT22;3214;49.932;8.494;2024-03-23T04:33:41;11.40;99.90
6363;DHT22;3214;49.932;8.494;2024-03-23T04:36:07;11.30;99.90
6363;DHT22;3214;49.932;8.494;2024-03-23T04:38:35;11.20;99.90
6363;DHT22;3214;49.932;8.494;2024-03-23T04:41:02;11.00;99.90
6363;DHT22;3214;49.932;8.494;2024-03-23T04:43:29;10.90;99.90
6363;DHT22;3214;49.932;8.494;2024-03-23T04:45:56;11.00;99.90
6363;DHT22;3214;49.932;8.494;2024-03-23T04:48:24;10.90;99.90
6363;DHT22;3214;49.932;8.494;2024-03-23T04:50:54;10.90;99.90
6363;DHT22;3214;49.932;8.494;2024-03-23T04:53:23;10.90;99.90
6363;DHT22;3214;49.932;8.494;2024-03-23T04:55:53;10.90;99.90
6363;DHT22;3214;49.932;8.494;2024-03-23T04:58:20;10.90;99.90
6363;DHT22;3214;49.932;8.494;2024-03-23T05:00:46;10.90;99.90
6363;DHT22;3214;49.932;8.494;2024-03-23T05:03:13;10.80;99.90
6363;DHT22;3214;49.932;8.494;2024-03-23T05:05:40;10.80;99.90
6363;DHT22;3214;49.932;8.494;2024-03-23T05:08:07;10.80;99.90
6363;DHT22;3214;49.932;8.494;2024-03-23T05:10:32;10.90;99.90
6363;DHT22;3214;49.932;8.494;2024-03-23T05:12:59;10.80;99.90
6363;DHT22;3214;49.932;8.494;2024-03-23T05:15:25;10.80;99.90
6363;DHT22;3214;49.932;8.494;2024-03-23T05:17:52;10.80;99.90
6363;DHT22;3214;49.932;8.494;2024-03-23T05:20:19;10.70;99.90
6363;DHT22;3214;49.932;8.494;2024-03-23T05:22:46;10.70;99.90
6363;DHT22;3214;49.932;8.494;2024-03-23T05:25:13;10.50;99.90
6363;DHT22;3214;49.932;8.494;2024-03-23T05:27:39;10.50;99.90
6363;DHT22;3214;49.932;8.494;2024-03-23T05:30:07;10.60;99.90
6363;DHT22;3214;49.932;8.494;2024-03-23T05:32:34;10.50;99.90
6363;DHT22;3214;49.932;8.494;2024-03-23T05:35:01;10.60;99.90
6363;DHT22;3214;49.932;8.494;2024-03-23T05:37:27;10.60;99.90
6363;DHT22;3214;49.932;8.494;2024-03-23T05:39:57;10.60;99.90
6363;DHT22;3214;49.932;8.494;2024-03-23T05:42:23;10.50;99.90
6363;DHT22;3214;49.932;8.494;2024-03-23T05:44:50;10.60;99.90
6363;DHT22;3214;49.932;8.494;2024-03-23T05:47:16;10.60;99.90
6363;DHT22;3214;49.932;8.494;2024-03-23T05:49:43;10.60;99.90
6363;DHT22;3214;49.932;8.494;2024-03-23T05:52:08;10.50;99.90
6363;DHT22;3214;49.932;8.494;2024-03-23T05:54:36;10.50;99.90
6363;DHT22;3214;49.932;8.494;2024-03-23T05:57:03;10.30;99.90
6363;DHT22;3214;49.932;8.494;2024-03-23T05:59:30;10.20;99.90
6363;DHT22;3214;49.932;8.494;2024-03-23T06:01:56;9.90;99.90
6363;DHT22;3214;49.932;8.494;2024-03-23T06:04:23;9.80;99.90
6363;DHT22;3214;49.932;8.494;2024-03-23T06:06:49;10.00;99.90
6363;DHT22;3214;49.932;8.494;2024-03-23T06:09:17;10.00;99.90
6363;DHT22;3214;49.932;8.494;2024-03-23T06:11:43;10.00;99.90
6363;DHT22;3214;49.932;8.494;2024-03-23T06:14:11;9.90;99.90
6363;DHT22;3214;49.932;8.494;2024-03-23T06:16:37;9.90;99.90
6363;DHT22;3214;49.932;8.494;2024-03-23T06:19:04;10.10;99.90
6363;DHT22;3214;49.932;8.494;2024-03-23T06:21:32;10.10;99.90
6363;DHT22;3214;49.932;8.494;2024-03-23T06:23:59;10.30;99.90
6363;DHT22;3214;49.932;8.494;2024-03-23T06:26:25;10.30;99.90
6363;DHT22;3214;49.932;8.494;2024-03-23T06:28:51;10.20;99.90
6363;DHT22;3214;49.932;8.494;2024-03-23T06:31:18;10.20;99.90
6363;DHT22;3214;49.932;8.494;2024-03-23T06:33:45;10.20;99.90
6363;DHT22;3214;49.932;8.494;2024-03-23T06:36:11;10.10;99.90
6363;DHT22;3214;49.932;8.494;2024-03-23T06:38:38;10.00;99.90
6363;DHT22;3214;49.932;8.494;2024-03-23T06:41:04;10.00;99.90
6363;DHT22;3214;49.932;8.494;2024-03-23T06:43:31;10.00;99.90
6363;DHT22;3214;49.932;8.494;2024-03-23T06:45:57;10.10;99.90
6363;DHT22;3214;49.932;8.494;2024-03-23T06:48:25;10.10;99.90
6363;DHT22;3214;49.932;8.494;2024-03-23T06:50:55;10.00;99.90
6363;DHT22;3214;49.932;8.494;2024-03-23T06:53:22;10.00;99.90
6363;DHT22;3214;49.932;8.494;2024-03-23T06:55:50;10.00;99.90
6363;DHT22;3214;49.932;8.494;2024-03-23T06:58:18;9.90;99.90
6363;DHT22;3214;49.932;8.494;2024-03-23T07:00:43;10.00;99.90
6363;DHT22;3214;49.932;8.494;2024-03-23T07:03:10;10.00;99.90
6363;DHT22;3214;49.932;8.494;2024-03-23T07:05:37;10.00;99.90
6363;DHT22;3214;49.932;8.494;2024-03-23T07:08:05;10.00;99.90
6363;DHT22;3214;49.932;8.494;2024-03-23T07:10:30;10.00;99.90
6363;DHT22;3214;49.932;8.494;2024-03-23T07:12:58;10.10;99.90
6363;DHT22;3214;49.932;8.494;2024-03-23T07:15:23;10.10;99.90
6363;DHT22;3214;49.932;8.494;2024-03-23T07:17:50;10.10;99.90
6363;DHT22;3214;49.932;8.494;2024-03-23T07:20:16;10.20;99.90
6363;DHT22;3214;49.932;8.494;2024-03-23T07:22:45;10.10;99.90
6363;DHT22;3214;49.932;8.494;2024-03-23T07:25:11;10.00;99.90
6363;DHT22;3214;49.932;8.494;2024-03-23T07:27:37;9.90;99.90
6363;DHT22;3214;49.932;8.494;2024-03-23T07:30:04;9.80;99.90
6363;DHT22;3214;49.932;8.494;2024-03-23T07:32:31;9.80;99.90
6363;DHT22;3214;49.932;8.494;2024-03-23T07:34:57;9.70;99.90
6363;DHT22;3214;49.932;8.494;2024-03-23T07:37:24;9.60;99.90
6363;DHT22;3214;49.932;8.494;2024-03-23T07:39:52;9.80;99.90
6363;DHT22;3214;49.932;8.494;2024-03-23T07:42:19;9.90;99.90
6363;DHT22;3214;49.932;8.494;2024-03-23T07:44:45;9.80;99.90
6363;DHT22;3214;49.932;8.494;2024-03-23T07:47:12;9.60;99.90
6363;DHT22;3214;49.932;8.494;2024-03-23T07:49:37;9.70;99.90
6363;DHT22;3214;49.932;8.494;2024-03-23T07:52:05;9.80;99.90
6363;DHT22;3214;49.932;8.494;2024-03-23T07:54:31;9.90;99.90
6363;DHT22;3214;49.932;8.494;2024-03-23T07:56:59;9.90;99.90
6363;DHT22;3214;49.932;8.494;2024-03-23T07:59:25;9.90;99.90
6363;DHT22;3214;49.932;8.494;2024-03-23T08:01:52;10.00;99.90
6363;DHT22;3214;49.932;8.494;2024-03-23T08:04:17;10.10;99.90
6363;DHT22;3214;49.932;8.494;2024-03-23T08:06:44;10.10;99.90
6363;DHT22;3214;49.932;8.494;2024-03-23T08:09:10;9.80;99.90
6363;DHT22;3214;49.932;8.494;2024-03-23T08:11:36;9.80;99.90
6363;DHT22;3214;49.932;8.494;2024-03-23T08:14:06;9.70;99.90
6363;DHT22;3214;49.932;8.494;2024-03-23T08:16:32;9.80;99.90
6363;DHT22;3214;49.932;8.494;2024-03-23T08:18:59;9.90;99.90
6363;DHT22;3214;49.932;8.494;2024-03-23T08:21:28;9.80;99.90
6363;DHT22;3214;49.932;8.494;2024-03-23T08:23:54;9.80;99.90
6363;DHT22;3214;49.932;8.494;2024-03-23T08:26:21;9.90;99.90
6363;DHT22;3214;49.932;8.494;2024-03-23T08:28:46;10.00;99.90
6363;DHT22;3214;49.932;8.494;2024-03-23T08:31:15;9.90;99.90
6363;DHT22;3214;49.932;8.494;2024-03-23T08:33:40;9.70;99.90
6363;DHT22;3214;49.932;8.494;2024-03-23T08:36:09;9.60;99.90
6363;DHT22;3214;49.932;8.494;2024-03-23T08:38:37;9.60;99.90
6363;DHT22;3214;49.932;8.494;2024-03-23T08:41:06;9.60;99.90
6363;DHT22;3214;49.932;8.494;2024-03-23T08:43:33;9.60;99.90
6363;DHT22;3214;49.932;8.494;2024-03-23T08:46:03;9.60;99.90
6363;DHT22;3214;49.932;8.494;2024-03-23T08:48:31;9.80;99.90
6363;DHT22;3214;49.932;8.494;2024-03-23T08:51:00;10.00;99.90
6363;DHT22;3214;49.932;8.494;2024-03-23T08:53:27;10.10;99.90
6363;DHT22;3214;49.932;8.494;2024-03-23T08:55:54;10.10;99.90
6363;DHT22;3214;49.932;8.494;2024-03-23T08:58:20;9.90;99.90
6363;DHT22;3214;49.932;8.494;2024-03-23T09:00:47;10.00;99.90
6363;DHT22;3214;49.932;8.494;2024-03-23T09:03:13;10.00;99.90
6363;DHT22;3214;49.932;8.494;2024-03-23T09:05:41;10.20;99.90
6363;DHT22;3214;49.932;8.494;2024-03-23T09:08:07;10.20;99.90
6363;DHT22;3214;49.932;8.494;2024-03-23T09:10:37;10.20;99.90
6363;DHT22;3214;49.932;8.494;2024-03-23T09:13:04;10.20;99.90
6363;DHT22;3214;49.932;8.494;2024-03-23T09:15:30;10.30;99.90
6363;DHT22;3214;49.932;8.494;2024-03-23T09:17:58;10.40;99.90
6363;DHT22;3214;49.932;8.494;2024-03-23T09:20:25;10.40;99.90
6363;DHT22;3214;49.932;8.494;2024-03-23T09:22:52;10.30;99.90
6363;DHT22;3214;49.932;8.494;2024-03-23T09:25:19;10.50;99.90
6363;DHT22;3214;49.932;8.494;2024-03-23T09:27:46;10.60;99.90
6363;DHT22;3214;49.932;8.494;2024-03-23T09:30:14;10.70;99.90
6363;DHT22;3214;49.932;8.494;2024-03-23T09:32:39;10.60;99.90
6363;DHT22;3214;49.932;8.494;2024-03-23T09:35:07;10.60;99.90
6363;DHT22;3214;49.932;8.494;2024-03-23T09:37:32;10.80;99.90
6363;DHT22;3214;49.932;8.494;2024-03-23T09:40:00;10.80;99.90
6363;DHT22;3214;49.932;8.494;2024-03-23T09:42:26;10.90;99.90
6363;DHT22;3214;49.932;8.494;2024-03-23T09:44:53;11.00;99.90
6363;DHT22;3214;49.932;8.494;2024-03-23T09:47:19;11.10;99.90
6363;DHT22;3214;49.932;8.494;2024-03-23T09:49:46;11.10;99.90
6363;DHT22;3214;49.932;8.494;2024-03-23T09:52:12;11.10;99.90
6363;DHT22;3214;49.932;8.494;2024-03-23T09:54:39;11.20;99.90
6363;DHT22;3214;49.932;8.494;2024-03-23T09:57:06;11.10;99.90
6363;DHT22;3214;49.932;8.494;2024-03-23T09:59:33;11.00;99.90
6363;DHT22;3214;49.932;8.494;2024-03-23T10:02:00;11.10;99.90
6363;DHT22;3214;49.932;8.494;2024-03-23T10:04:36;11.00;99.90
6363;DHT22;3214;49.932;8.494;2024-03-23T10:07:11;10.90;99.90
6363;DHT22;3214;49.932;8.494;2024-03-23T10:09:37;10.80;99.90
6363;DHT22;3214;49.932;8.494;2024-03-23T10:12:09;10.80;99.90
6363;DHT22;3214;49.932;8.494;2024-03-23T10:14:37;10.80;99.90
6363;DHT22;3214;49.932;8.494;2024-03-23T10:17:14;10.70;99.90
6363;DHT22;3214;49.932;8.494;2024-03-23T10:19:43;10.70;99.90
6363;DHT22;3214;49.932;8.494;2024-03-23T10:22:09;10.70;99.90
6363;DHT22;3214;49.932;8.494;2024-03-23T10:24:36;10.70;99.90
6363;DHT22;3214;49.932;8.494;2024-03-23T10:27:02;10.80;99.90
6363;DHT22;3214;49.932;8.494;2024-03-23T10:29:30;10.80;99.90
6363;DHT22;3214;49.932;8.494;2024-03-23T10:32:08;10.80;99.90
6363;DHT22;3214;49.932;8.494;2024-03-23T10:34:35;10.70;99.90
6363;DHT22;3214;49.932;8.494;2024-03-23T10:37:02;10.80;99.90
6363;DHT22;3214;49.932;8.494;2024-03-23T10:39:31;11.00;99.90
6363;DHT22;3214;49.932;8.494;2024-03-23T10:42:00;10.90;99.90
6363;DHT22;3214;49.932;8.494;2024-03-23T10:44:30;10.40;99.90
6363;DHT22;3214;49.932;8.494;2024-03-23T10:46:57;10.10;99.90
6363;DHT22;3214;49.932;8.494;2024-03-23T10:49:28;9.90;99.90
6363;DHT22;3214;49.932;8.494;2024-03-23T10:51:56;9.60;99.90
6363;DHT22;3214;49.932;8.494;2024-03-23T10:54:24;9.40;99.90
6363;DHT22;3214;49.932;8.494;2024-03-23T10:56:53;9.30;99.90
6363;DHT22;3214;49.932;8.494;2024-03-23T10:59:23;9.10;99.90
6363;DHT22;3214;49.932;8.494;2024-03-23T11:01:57;9.00;99.90
6363;DHT22;3214;49.932;8.494;2024-03-23T11:04:30;8.80;99.90
6363;DHT22;3214;49.932;8.494;2024-03-23T11:06:57;8.30;99.90
6363;DHT22;3214;49.932;8.494;2024-03-23T11:09:40;8.10;99.90
6363;DHT22;3214;49.932;8.494;2024-03-23T11:12:24;8.20;99.90
6363;DHT22;3214;49.932;8.494;2024-03-23T11:14:52;8.20;99.90
6363;DHT22;3214;49.932;8.494;2024-03-23T11:17:21;8.00;99.90
6363;DHT22;3214;49.932;8.494;2024-03-23T11:19:53;7.80;99.90
6363;DHT22;3214;49.932;8.494;2024-03-23T11:22:38;7.90;99.90
6363;DHT22;3214;49.932;8.494;2024-03-23T11:25:15;7.90;99.90
6363;DHT22;3214;49.932;8.494;2024-03-23T11:27:42;7.70;99.90
6363;DHT22;3214;49.932;8.494;2024-03-23T11:30:16;7.50;99.90
6363;DHT22;3214;49.932;8.494;2024-03-23T11:32:44;7.50;99.90
6363;DHT22;3214;49.932;8.494;2024-03-23T11:35:28;7.70;99.90
6363;DHT22;3214;49.932;8.494;2024-03-23T11:38:07;7.90;99.90
6363;DHT22;3214;49.932;8.494;2024-03-23T11:40:35;8.20;99.90
6363;DHT22;3214;49.932;8.494;2024-03-23T11:43:02;8.50;99.90
6363;DHT22;3214;49.932;8.494;2024-03-23T11:45:34;8.70;99.90
6363;DHT22;3214;49.932;8.494;2024-03-23T11:48:07;9.20;99.90
6363;DHT22;3214;49.932;8.494;2024-03-23T11:50:36;9.60;99.90
6363;DHT22;3214;49.932;8.494;2024-03-23T11:53:14;10.10;99.90
6363;DHT22;3214;49.932;8.494;2024-03-23T11:55:46;10.50;99.90
6363;DHT22;3214;49.932;8.494;2024-03-23T11:58:12;10.80;99.90
6363;DHT22;3214;49.932;8.494;2024-03-23T12:00:39;10.70;99.90
6363;DHT22;3214;49.932;8.494;2024-03-23T12:03:07;10.70;99.90
6363;DHT22;3214;49.932;8.494;2024-03-23T12:05:34;10.80;99.90
6363;DHT22;3214;49.932;8.494;2024-03-23T12:08:22;10.90;99.90
6363;DHT22;3214;49.932;8.494;2024-03-23T12:10:51;11.10;99.90
6363;DHT22;3214;49.932;8.494;2024-03-23T12:13:18;11.10;99.90
6363;DHT22;3214;49.932;8.494;2024-03-23T12:15:45;11.30;99.90
6363;DHT22;3214;49.932;8.494;2024-03-23T12:18:13;11.30;99.90
6363;DHT22;3214;49.932;8.494;2024-03-23T12:20:41;11.50;99.90
6363;DHT22;3214;49.932;8.494;2024-03-23T12:23:08;11.60;99.90
6363;DHT22;3214;49.932;8.494;2024-03-23T12:25:35;11.60;99.90
6363;DHT22;3214;49.932;8.494;2024-03-23T12:28:01;11.80;99.90
6363;DHT22;3214;49.932;8.494;2024-03-23T12:30:28;12.10;99.90
6363;DHT22;3214;49.932;8.494;2024-03-23T12:32:54;12.30;99.90
6363;DHT22;3214;49.932;8.494;2024-03-23T12:35:23;12.30;99.90
6363;DHT22;3214;49.932;8.494;2024-03-23T12:37:49;12.40;99.90
6363;DHT22;3214;49.932;8.494;2024-03-23T12:40:15;12.40;99.90
6363;DHT22;3214;49.932;8.494;2024-03-23T12:42:41;12.40;99.90
6363;DHT22;3214;49.932;8.494;2024-03-23T12:45:08;12.20;99.90
6363;DHT22;3214;49.932;8.494;2024-03-23T12:47:34;12.10;99.90
6363;DHT22;3214;49.932;8.494;2024-03-23T12:50:01;12.00;99.90
6363;DHT22;3214;49.932;8.494;2024-03-23T12:52:29;11.90;99.90
6363;DHT22;3214;49.932;8.494;2024-03-23T12:54:55;11.80;99.90
6363;DHT22;3214;49.932;8.494;2024-03-23T12:57:22;11.60;99.90
6363;DHT22;3214;49.932;8.494;2024-03-23T12:59:51;11.40;99.90
6363;DHT22;3214;49.932;8.494;2024-03-23T13:02:18;11.40;99.90
6363;DHT22;3214;49.932;8.494;2024-03-23T13:04:46;11.30;99.90
6363;DHT22;3214;49.932;8.494;2024-03-23T13:07:13;11.00;99.90
6363;DHT22;3214;49.932;8.494;2024-03-23T13:09:41;10.30;99.90
6363;DHT22;3214;49.932;8.494;2024-03-23T13:12:07;9.20;99.90
6363;DHT22;3214;49.932;8.494;2024-03-23T13:14:34;8.30;99.90
6363;DHT22;3214;49.932;8.494;2024-03-23T13:17:00;7.90;99.90
6363;DHT22;3214;49.932;8.494;2024-03-23T13:19:27;7.80;99.90
6363;DHT22;3214;49.932;8.494;2024-03-23T13:21:56;7.90;99.90
6363;DHT22;3214;49.932;8.494;2024-03-23T13:24:23;8.10;99.90
6363;DHT22;3214;49.932;8.494;2024-03-23T13:26:51;8.20;99.90
6363;DHT22;3214;49.932;8.494;2024-03-23T13:29:19;8.70;99.90
6363;DHT22;3214;49.932;8.494;2024-03-23T13:31:45;9.10;99.90
6363;DHT22;3214;49.932;8.494;2024-03-23T13:34:12;9.30;99.90
6363;DHT22;3214;49.932;8.494;2024-03-23T13:36:40;9.70;99.90
6363;DHT22;3214;49.932;8.494;2024-03-23T13:39:07;10.30;99.90
6363;DHT22;3214;49.932;8.494;2024-03-23T13:41:40;10.70;99.90
6363;DHT22;3214;49.932;8.494;2024-03-23T13:44:08;10.80;99.90
6363;DHT22;3214;49.932;8.494;2024-03-23T13:46:36;10.60;99.90
6363;DHT22;3214;49.932;8.494;2024-03-23T13:49:02;10.40;99.90
6363;DHT22;3214;49.932;8.494;2024-03-23T13:51:28;10.40;99.90
6363;DHT22;3214;49.932;8.494;2024-03-23T13:53:55;10.50;99.90
6363;DHT22;3214;49.932;8.494;2024-03-23T13:56:22;10.40;99.90
6363;DHT22;3214;49.932;8.494;2024-03-23T13:58:50;10.50;99.90
6363;DHT22;3214;49.932;8.494;2024-03-23T14:01:17;10.30;99.90
6363;DHT22;3214;49.932;8.494;2024-03-23T14:03:44;10.30;99.90
6363;DHT22;3214;49.932;8.494;2024-03-23T14:06:10;10.70;99.90
6363;DHT22;3214;49.932;8.494;2024-03-23T14:08:37;11.20;99.90
6363;DHT22;3214;49.932;8.494;2024-03-23T14:11:05;11.30;99.90
6363;DHT22;3214;49.932;8.494;2024-03-23T14:13:31;11.30;99.90
6363;DHT22;3214;49.932;8.494;2024-03-23T14:15:58;11.40;99.90
6363;DHT22;3214;49.932;8.494;2024-03-23T14:18:26;11.20;99.90
6363;DHT22;3214;49.932;8.494;2024-03-23T14:20:52;10.90;99.90
6363;DHT22;3214;49.932;8.494;2024-03-23T14:23:23;10.80;99.90
6363;DHT22;3214;49.932;8.494;2024-03-23T14:25:49;10.70;99.90
6363;DHT22;3214;49.932;8.494;2024-03-23T14:28:16;10.60;99.90
6363;DHT22;3214;49.932;8.494;2024-03-23T14:30:42;10.60;99.90
6363;DHT22;3214;49.932;8.494;2024-03-23T14:33:09;10.60;99.90
6363;DHT22;3214;49.932;8.494;2024-03-23T14:35:36;10.60;99.90
6363;DHT22;3214;49.932;8.494;2024-03-23T14:38:03;10.70;99.90
6363;DHT22;3214;49.932;8.494;2024-03-23T14:40:29;10.70;99.90
6363;DHT22;3214;49.932;8.494;2024-03-23T14:42:56;10.90;99.90
6363;DHT22;3214;49.932;8.494;2024-03-23T14:45:22;11.30;99.90
6363;DHT22;3214;49.932;8.494;2024-03-23T14:47:50;11.10;99.90
6363;DHT22;3214;49.932;8.494;2024-03-23T14:50:16;11.30;99.90
6363;DHT22;3214;49.932;8.494;2024-03-23T14:52:45;11.30;99.90
6363;DHT22;3214;49.932;8.494;2024-03-23T14:55:11;11.00;99.90
6363;DHT22;3214;49.932;8.494;2024-03-23T14:57:38;11.00;99.90
6363;DHT22;3214;49.932;8.494;2024-03-23T15:00:07;10.90;99.90
6363;DHT22;3214;49.932;8.494;2024-03-23T15:02:36;10.70;99.90
6363;DHT22;3214;49.932;8.494;2024-03-23T15:05:01;10.70;99.90
6363;DHT22;3214;49.932;8.494;2024-03-23T15:07:29;10.70;99.90
6363;DHT22;3214;49.932;8.494;2024-03-23T15:09:57;10.80;99.90
6363;DHT22;3214;49.932;8.494;2024-03-23T15:12:23;10.90;99.90
6363;DHT22;3214;49.932;8.494;2024-03-23T15:14:49;10.90;99.90
6363;DHT22;3214;49.932;8.494;2024-03-23T15:17:16;10.80;99.90
6363;DHT22;3214;49.932;8.494;2024-03-23T15:19:44;10.90;99.90
6363;DHT22;3214;49.932;8.494;2024-03-23T15:22:10;10.90;99.90
6363;DHT22;3214;49.932;8.494;2024-03-23T15:24:36;10.80;99.90
6363;DHT22;3214;49.932;8.494;2024-03-23T15:27:05;10.70;99.90
6363;DHT22;3214;49.932;8.494;2024-03-23T15:29:33;10.40;99.90
6363;DHT22;3214;49.932;8.494;2024-03-23T15:31:59;10.20;99.90
6363;DHT22;3214;49.932;8.494;2024-03-23T15:34:25;9.90;99.90
6363;DHT22;3214;49.932;8.494;2024-03-23T15:36:52;9.80;99.90
6363;DHT22;3214;49.932;8.494;2024-03-23T15:39:17;9.50;99.90
6363;DHT22;3214;49.932;8.494;2024-03-23T15:41:45;9.30;99.90
6363;DHT22;3214;49.932;8.494;2024-03-23T15:44:13;9.10;99.90
6363;DHT22;3214;49.932;8.494;2024-03-23T15:46:40;9.10;99.90
6363;DHT22;3214;49.932;8.494;2024-03-23T15:49:06;9.00;99.90
6363;DHT22;3214;49.932;8.494;2024-03-23T15:51:33;9.00;99.90
6363;DHT22;3214;49.932;8.494;2024-03-23T15:54:00;8.90;99.90
6363;DHT22;3214;49.932;8.494;2024-03-23T15:56:28;8.90;99.90
6363;DHT22;3214;49.932;8.494;2024-03-23T15:58:54;9.10;99.90
6363;DHT22;3214;49.932;8.494;2024-03-23T16:01:22;9.30;99.90
6363;DHT22;3214;49.932;8.494;2024-03-23T16:03:50;9.40;99.90
6363;DHT22;3214;49.932;8.494;2024-03-23T16:06:17;9.40;99.90
6363;DHT22;3214;49.932;8.494;2024-03-23T16:08:43;9.60;99.90
6363;DHT22;3214;49.932;8.494;2024-03-23T16:11:10;9.60;99.90
6363;DHT22;3214;49.932;8.494;2024-03-23T16:13:35;9.60;99.90
6363;DHT22;3214;49.932;8.494;2024-03-23T16:16:04;9.60;99.90
6363;DHT22;3214;49.932;8.494;2024-03-23T16:18:34;9.50;99.90
6363;DHT22;3214;49.932;8.494;2024-03-23T16:21:02;9.50;99.90
6363;DHT22;3214;49.932;8.494;2024-03-23T16:23:28;9.40;99.90
6363;DHT22;3214;49.932;8.494;2024-03-23T16:25:55;9.50;99.90
6363;DHT22;3214;49.932;8.494;2024-03-23T16:28:25;9.50;99.90
6363;DHT22;3214;49.932;8.494;2024-03-23T16:30:54;9.60;99.90
6363;DHT22;3214;49.932;8.494;2024-03-23T16:33:20;9.60;99.90
6363;DHT22;3214;49.932;8.494;2024-03-23T16:35:56;9.50;99.90
6363;DHT22;3214;49.932;8.494;2024-03-23T16:38:22;9.50;99.90
6363;DHT22;3214;49.932;8.494;2024-03-23T16:40:56;9.50;99.90
6363;DHT22;3214;49.932;8.494;2024-03-23T16:43:22;9.60;99.90
6363;DHT22;3214;49.932;8.494;2024-03-23T16:45:57;9.60;99.90
6363;DHT22;3214;49.932;8.494;2024-03-23T16:48:23;9.60;99.90
6363;DHT22;3214;49.932;8.494;2024-03-23T16:50:50;9.50;99.90
6363;DHT22;3214;49.932;8.494;2024-03-23T16:53:18;9.50;99.90
6363;DHT22;3214;49.932;8.494;2024-03-23T16:55:45;9.40;99.90
6363;DHT22;3214;49.932;8.494;2024-03-23T16:58:11;9.40;99.90
6363;DHT22;3214;49.932;8.494;2024-03-23T17:00:38;9.30;99.90
6363;DHT22;3214;49.932;8.494;2024-03-23T17:03:04;9.30;99.90